sensor_id;sensor_type;location;lat;lon;timestamp;pressure;altitude;pressure_sealevel;temperature;humidity
46846;BME280;33947;46.804;134.252;2023-01-29T00:00:32;101148.50;;;-32.02;48.89
46846;BME280;33947;46.804;134.252;2023-01-29T00:03:37;101261.06;;;-31.05;49.42
46846;BME280;33947;46.804;134.252;2023-01-29T00:06:50;101259.63;;;-30.46;49.09
46846;BME280;33947;46.804;134.252;2023-01-29T00:10:05;101263.25;;;-29.97;49.15
46846;BME280;33947;46.804;134.252;2023-01-29T00:13:10;101257.78;;;-30.36;47.86
46846;BME280;33947;46.804;134.252;2023-01-29T00:16:15;101258.44;;;-30.25;48.97
46846;BME280;33947;46.804;134.252;2023-01-29T00:19:20;101243.22;;;-29.38;49.32
46846;BME280;33947;46.804;134.252;2023-01-29T00:22:29;101256.75;;;-28.76;49.76
46846;BME280;33947;46.804;134.252;2023-01-29T00:25:42;101257.34;;;-28.04;49.06
46846;BME280;33947;46.804;134.252;2023-01-29T00:28:56;101199.94;;;-28.17;48.84
46846;BME280;33947;46.804;134.252;2023-01-29T00:32:08;101258.00;;;-27.05;48.54
46846;BME280;33947;46.804;134.252;2023-01-29T00:35:16;101257.03;;;-27.00;46.83
46846;BME280;33947;46.804;134.252;2023-01-29T00:38:29;101215.00;;;-27.28;47.08
46846;BME280;33947;46.804;134.252;2023-01-29T00:41:41;101262.63;;;-26.95;47.12
46846;BME280;33947;46.804;134.252;2023-01-29T00:45:36;101258.72;;;-26.15;47.46
46846;BME280;33947;46.804;134.252;2023-01-29T00:48:44;101256.00;;;-24.83;47.99
46846;BME280;33947;46.804;134.252;2023-01-29T00:51:48;101249.84;;;-24.37;46.11
46846;BME280;33947;46.804;134.252;2023-01-29T00:55:13;101244.06;;;-23.94;45.79
46846;BME280;33947;46.804;134.252;2023-01-29T00:58:20;101251.03;;;-23.42;45.92
46846;BME280;33947;46.804;134.252;2023-01-29T01:01:30;101238.34;;;-21.89;45.20
46846;BME280;33947;46.804;134.252;2023-01-29T01:04:53;101225.53;;;-20.43;44.74
46846;BME280;33947;46.804;134.252;2023-01-29T01:07:57;101235.94;;;-21.19;42.13
46846;BME280;33947;46.804;134.252;2023-01-29T01:11:04;101221.13;;;-19.39;42.18
46846;BME280;33947;46.804;134.252;2023-01-29T01:14:09;101217.84;;;-18.71;40.23
46846;BME280;33947;46.804;134.252;2023-01-29T01:17:16;101197.91;;;-18.50;37.56
46846;BME280;33947;46.804;134.252;2023-01-29T01:20:21;101212.56;;;-17.51;37.43
46846;BME280;33947;46.804;134.252;2023-01-29T01:23:26;101221.03;;;-17.41;35.42
46846;BME280;33947;46.804;134.252;2023-01-29T01:26:31;101213.75;;;-17.82;36.21
46846;BME280;33947;46.804;134.252;2023-01-29T01:29:36;101217.34;;;-17.71;35.22
46846;BME280;33947;46.804;134.252;2023-01-29T01:32:42;101195.28;;;-16.81;37.19
46846;BME280;33947;46.804;134.252;2023-01-29T01:35:47;101209.59;;;-15.98;35.81
46846;BME280;33947;46.804;134.252;2023-01-29T01:38:51;101182.50;;;-16.73;35.35
46846;BME280;33947;46.804;134.252;2023-01-29T01:41:57;101210.13;;;-16.95;36.54
46846;BME280;33947;46.804;134.252;2023-01-29T01:45:04;101204.91;;;-15.93;35.08
46846;BME280;33947;46.804;134.252;2023-01-29T01:48:22;101210.84;;;-15.74;33.30
46846;BME280;33947;46.804;134.252;2023-01-29T01:51:34;101173.81;;;-15.99;32.81
46846;BME280;33947;46.804;134.252;2023-01-29T01:54:41;101191.72;;;-15.79;32.67
46846;BME280;33947;46.804;134.252;2023-01-29T01:57:52;101161.84;;;-15.42;31.88
46846;BME280;33947;46.804;134.252;2023-01-29T02:00:59;101181.06;;;-15.75;31.63
46846;BME280;33947;46.804;134.252;2023-01-29T02:04:07;101188.06;;;-16.21;31.77
46846;BME280;33947;46.804;134.252;2023-01-29T02:07:32;101170.59;;;-16.54;31.21
46846;BME280;33947;46.804;134.252;2023-01-29T02:10:55;101171.56;;;-16.63;31.80
46846;BME280;33947;46.804;134.252;2023-01-29T02:14:04;101172.03;;;-16.39;32.01
46846;BME280;33947;46.804;134.252;2023-01-29T02:17:16;101178.09;;;-16.09;32.25
46846;BME280;33947;46.804;134.252;2023-01-29T02:20:26;101121.25;;;-16.56;31.94
46846;BME280;33947;46.804;134.252;2023-01-29T02:37:44;101154.69;;;-18.08;32.87
46846;BME280;33947;46.804;134.252;2023-01-29T02:45:28;101148.50;;;-18.80;34.23
46846;BME280;33947;46.804;134.252;2023-01-29T02:48:01;101136.63;;;-18.55;34.33
46846;BME280;33947;46.804;134.252;2023-01-29T02:51:18;101123.06;;;-18.55;33.54
46846;BME280;33947;46.804;134.252;2023-01-29T02:57:51;101135.44;;;-18.58;34.68
46846;BME280;33947;46.804;134.252;2023-01-29T03:01:39;101107.19;;;-18.97;35.28
46846;BME280;33947;46.804;134.252;2023-01-29T03:04:57;101116.31;;;-18.90;35.29
46846;BME280;33947;46.804;134.252;2023-01-29T03:08:07;101086.94;;;-18.88;34.66
46846;BME280;33947;46.804;134.252;2023-01-29T03:11:16;101126.59;;;-18.80;35.08
46846;BME280;33947;46.804;134.252;2023-01-29T03:15:09;101125.94;;;-19.12;34.84
46846;BME280;33947;46.804;134.252;2023-01-29T03:18:40;101122.94;;;-19.17;35.99
46846;BME280;33947;46.804;134.252;2023-01-29T03:21:56;101057.13;;;-19.51;35.65
46846;BME280;33947;46.804;134.252;2023-01-29T03:25:06;101130.19;;;-19.29;35.79
46846;BME280;33947;46.804;134.252;2023-01-29T03:28:30;101122.69;;;-19.11;35.92
46846;BME280;33947;46.804;134.252;2023-01-29T03:31:55;101116.31;;;-19.41;36.54
46846;BME280;33947;46.804;134.252;2023-01-29T03:35:15;101122.84;;;-19.43;36.78
46846;BME280;33947;46.804;134.252;2023-01-29T03:39:05;101093.31;;;-19.52;36.95
46846;BME280;33947;46.804;134.252;2023-01-29T03:52:49;101114.56;;;-19.83;38.38
46846;BME280;33947;46.804;134.252;2023-01-29T03:56:36;101072.38;;;-19.75;38.36
46846;BME280;33947;46.804;134.252;2023-01-29T04:00:10;101089.72;;;-19.54;38.33
46846;BME280;33947;46.804;134.252;2023-01-29T04:03:58;101061.25;;;-19.69;38.27
46846;BME280;33947;46.804;134.252;2023-01-29T04:07:12;101078.94;;;-19.35;38.29
46846;BME280;33947;46.804;134.252;2023-01-29T04:10:21;101026.91;;;-19.67;38.46
46846;BME280;33947;46.804;134.252;2023-01-29T04:13:30;101073.97;;;-19.09;37.79
46846;BME280;33947;46.804;134.252;2023-01-29T04:16:40;101081.34;;;-19.28;38.91
46846;BME280;33947;46.804;134.252;2023-01-29T04:19:48;101090.66;;;-18.93;38.46
46846;BME280;33947;46.804;134.252;2023-01-29T04:22:53;101050.22;;;-19.27;38.13
46846;BME280;33947;46.804;134.252;2023-01-29T04:26:05;101073.25;;;-18.99;37.80
46846;BME280;33947;46.804;134.252;2023-01-29T04:29:36;101086.66;;;-18.73;37.51
46846;BME280;33947;46.804;134.252;2023-01-29T04:33:08;101083.84;;;-19.37;38.59
46846;BME280;33947;46.804;134.252;2023-01-29T04:36:27;101097.66;;;-18.90;37.88
46846;BME280;33947;46.804;134.252;2023-01-29T04:43:43;101063.50;;;-19.29;38.31
46846;BME280;33947;46.804;134.252;2023-01-29T04:47:13;101085.75;;;-19.09;38.76
46846;BME280;33947;46.804;134.252;2023-01-29T04:53:54;101075.31;;;-18.95;38.70
46846;BME280;33947;46.804;134.252;2023-01-29T04:57:30;101078.59;;;-18.78;38.71
46846;BME280;33947;46.804;134.252;2023-01-29T05:00:48;101071.63;;;-18.72;38.54
46846;BME280;33947;46.804;134.252;2023-01-29T05:04:08;101047.03;;;-18.64;38.22
46846;BME280;33947;46.804;134.252;2023-01-29T05:07:14;101059.38;;;-18.85;38.67
46846;BME280;33947;46.804;134.252;2023-01-29T05:10:35;101067.31;;;-18.73;38.49
46846;BME280;33947;46.804;134.252;2023-01-29T05:13:41;101065.81;;;-18.36;38.37
46846;BME280;33947;46.804;134.252;2023-01-29T05:16:52;101059.41;;;-18.50;38.30
46846;BME280;33947;46.804;134.252;2023-01-29T05:20:02;101062.69;;;-18.24;37.97
46846;BME280;33947;46.804;134.252;2023-01-29T05:23:23;101058.19;;;-18.27;37.90
46846;BME280;33947;46.804;134.252;2023-01-29T05:26:37;101006.63;;;-18.71;38.03
46846;BME280;33947;46.804;134.252;2023-01-29T05:30:03;101046.41;;;-18.44;38.37
46846;BME280;33947;46.804;134.252;2023-01-29T05:36:20;101001.09;;;-18.41;37.97
46846;BME280;33947;46.804;134.252;2023-01-29T05:39:36;101041.66;;;-18.85;38.20
46846;BME280;33947;46.804;134.252;2023-01-29T05:42:40;101045.22;;;-18.30;38.59
46846;BME280;33947;46.804;134.252;2023-01-29T05:45:56;101048.28;;;-17.97;38.15
46846;BME280;33947;46.804;134.252;2023-01-29T05:49:06;101052.28;;;-17.99;37.78
46846;BME280;33947;46.804;134.252;2023-01-29T05:52:13;101035.59;;;-17.97;37.31
46846;BME280;33947;46.804;134.252;2023-01-29T05:55:20;101011.78;;;-18.17;38.25
46846;BME280;33947;46.804;134.252;2023-01-29T05:58:30;101041.44;;;-17.98;37.27
46846;BME280;33947;46.804;134.252;2023-01-29T06:01:34;100999.28;;;-18.24;37.79
46846;BME280;33947;46.804;134.252;2023-01-29T06:04:45;101047.00;;;-18.38;37.53
46846;BME280;33947;46.804;134.252;2023-01-29T06:07:50;101031.50;;;-18.23;38.09
46846;BME280;33947;46.804;134.252;2023-01-29T06:11:01;101051.44;;;-18.09;37.72
46846;BME280;33947;46.804;134.252;2023-01-29T06:14:05;101033.25;;;-18.05;37.47
46846;BME280;33947;46.804;134.252;2023-01-29T06:17:09;101015.38;;;-18.24;37.36
46846;BME280;33947;46.804;134.252;2023-01-29T06:20:14;100993.38;;;-18.69;36.73
46846;BME280;33947;46.804;134.252;2023-01-29T06:23:18;101035.25;;;-18.28;37.96
46846;BME280;33947;46.804;134.252;2023-01-29T06:26:23;101028.38;;;-18.47;38.30
46846;BME280;33947;46.804;134.252;2023-01-29T06:29:27;101077.44;;;-18.11;37.91
46846;BME280;33947;46.804;134.252;2023-01-29T06:32:33;101002.91;;;-18.66;38.28
46846;BME280;33947;46.804;134.252;2023-01-29T06:35:37;101077.13;;;-18.23;38.06
46846;BME280;33947;46.804;134.252;2023-01-29T06:38:42;101017.53;;;-18.64;38.38
46846;BME280;33947;46.804;134.252;2023-01-29T06:41:47;101044.06;;;-18.69;37.83
46846;BME280;33947;46.804;134.252;2023-01-29T06:44:56;101080.56;;;-18.23;38.07
46846;BME280;33947;46.804;134.252;2023-01-29T06:48:00;101086.66;;;-18.21;37.62
46846;BME280;33947;46.804;134.252;2023-01-29T06:51:09;101091.16;;;-18.27;37.85
46846;BME280;33947;46.804;134.252;2023-01-29T06:54:35;101080.56;;;-18.14;36.99
46846;BME280;33947;46.804;134.252;2023-01-29T06:57:40;101052.25;;;-18.36;37.62
46846;BME280;33947;46.804;134.252;2023-01-29T07:00:44;101084.00;;;-18.31;37.28
46846;BME280;33947;46.804;134.252;2023-01-29T07:03:49;101062.06;;;-18.48;37.88
46846;BME280;33947;46.804;134.252;2023-01-29T07:06:54;101089.66;;;-18.60;37.64
46846;BME280;33947;46.804;134.252;2023-01-29T07:09:58;101088.69;;;-19.13;38.02
46846;BME280;33947;46.804;134.252;2023-01-29T07:13:05;101079.59;;;-19.20;38.29
46846;BME280;33947;46.804;134.252;2023-01-29T07:16:09;101093.44;;;-19.16;38.30
46846;BME280;33947;46.804;134.252;2023-01-29T07:19:13;101058.00;;;-19.16;38.91
46846;BME280;33947;46.804;134.252;2023-01-29T07:22:18;101098.09;;;-18.95;38.25
46846;BME280;33947;46.804;134.252;2023-01-29T07:25:23;101083.47;;;-19.15;38.17
46846;BME280;33947;46.804;134.252;2023-01-29T07:28:28;101105.75;;;-19.37;38.34
46846;BME280;33947;46.804;134.252;2023-01-29T07:31:33;101078.28;;;-19.92;39.29
46846;BME280;33947;46.804;134.252;2023-01-29T07:34:37;101105.22;;;-19.51;38.71
46846;BME280;33947;46.804;134.252;2023-01-29T07:37:41;101101.50;;;-19.79;38.94
46846;BME280;33947;46.804;134.252;2023-01-29T07:40:45;101109.19;;;-19.95;39.14
46846;BME280;33947;46.804;134.252;2023-01-29T07:43:50;101102.97;;;-19.90;39.23
46846;BME280;33947;46.804;134.252;2023-01-29T07:46:55;101102.53;;;-20.11;39.38
46846;BME280;33947;46.804;134.252;2023-01-29T07:49:59;101110.13;;;-20.11;39.82
46846;BME280;33947;46.804;134.252;2023-01-29T07:53:03;101107.66;;;-20.43;39.32
46846;BME280;33947;46.804;134.252;2023-01-29T07:56:08;101110.34;;;-20.41;40.45
46846;BME280;33947;46.804;134.252;2023-01-29T07:59:13;101116.25;;;-20.25;39.79
46846;BME280;33947;46.804;134.252;2023-01-29T08:02:17;101100.88;;;-20.35;39.64
46846;BME280;33947;46.804;134.252;2023-01-29T08:05:22;101130.25;;;-20.03;38.95
46846;BME280;33947;46.804;134.252;2023-01-29T08:08:26;101127.94;;;-20.18;38.82
46846;BME280;33947;46.804;134.252;2023-01-29T08:11:31;101126.72;;;-20.38;39.55
46846;BME280;33947;46.804;134.252;2023-01-29T08:14:36;101131.94;;;-20.52;39.64
46846;BME280;33947;46.804;134.252;2023-01-29T08:17:40;101129.09;;;-20.55;39.53
46846;BME280;33947;46.804;134.252;2023-01-29T08:21:00;101115.06;;;-21.08;40.41
46846;BME280;33947;46.804;134.252;2023-01-29T08:24:09;101079.16;;;-21.06;39.68
46846;BME280;33947;46.804;134.252;2023-01-29T08:27:13;101128.91;;;-21.05;40.34
46846;BME280;33947;46.804;134.252;2023-01-29T08:30:18;101094.53;;;-21.67;41.00
46846;BME280;33947;46.804;134.252;2023-01-29T08:33:23;101131.44;;;-21.21;41.32
46846;BME280;33947;46.804;134.252;2023-01-29T08:36:40;101142.47;;;-20.56;40.39
46846;BME280;33947;46.804;134.252;2023-01-29T08:39:45;101141.13;;;-20.53;39.31
46846;BME280;33947;46.804;134.252;2023-01-29T08:42:50;101120.94;;;-20.53;39.16
46846;BME280;33947;46.804;134.252;2023-01-29T08:45:55;101116.78;;;-20.52;39.07
46846;BME280;33947;46.804;134.252;2023-01-29T08:49:00;101081.97;;;-20.95;39.48
46846;BME280;33947;46.804;134.252;2023-01-29T08:52:07;101144.34;;;-20.62;39.24
46846;BME280;33947;46.804;134.252;2023-01-29T08:55:12;101145.13;;;-20.71;39.18
46846;BME280;33947;46.804;134.252;2023-01-29T08:58:18;101134.63;;;-20.50;39.08
46846;BME280;33947;46.804;134.252;2023-01-29T09:01:25;101146.03;;;-20.54;39.25
46846;BME280;33947;46.804;134.252;2023-01-29T09:04:31;101121.63;;;-20.78;39.69
46846;BME280;33947;46.804;134.252;2023-01-29T09:07:35;101120.94;;;-20.85;39.58
46846;BME280;33947;46.804;134.252;2023-01-29T09:10:40;101129.13;;;-20.87;39.47
46846;BME280;33947;46.804;134.252;2023-01-29T09:13:48;101164.44;;;-20.71;39.53
46846;BME280;33947;46.804;134.252;2023-01-29T09:16:53;101157.75;;;-20.87;40.07
46846;BME280;33947;46.804;134.252;2023-01-29T09:19:59;101132.44;;;-20.95;40.01
46846;BME280;33947;46.804;134.252;2023-01-29T09:23:06;101172.75;;;-20.88;40.73
46846;BME280;33947;46.804;134.252;2023-01-29T09:26:11;101174.31;;;-20.98;40.62
46846;BME280;33947;46.804;134.252;2023-01-29T09:29:16;101168.31;;;-21.37;41.23
46846;BME280;33947;46.804;134.252;2023-01-29T09:32:21;101179.34;;;-22.43;42.27
46846;BME280;33947;46.804;134.252;2023-01-29T09:35:46;101158.69;;;-23.07;43.44
46846;BME280;33947;46.804;134.252;2023-01-29T09:38:50;101148.59;;;-23.15;42.91
46846;BME280;33947;46.804;134.252;2023-01-29T09:42:08;101175.75;;;-23.19;43.42
46846;BME280;33947;46.804;134.252;2023-01-29T09:45:22;101170.22;;;-23.38;43.43
46846;BME280;33947;46.804;134.252;2023-01-29T09:48:30;101189.06;;;-23.49;44.35
46846;BME280;33947;46.804;134.252;2023-01-29T09:51:40;101191.56;;;-23.49;44.32
46846;BME280;33947;46.804;134.252;2023-01-29T10:01:42;101203.63;;;-24.18;45.05
46846;BME280;33947;46.804;134.252;2023-01-29T10:08:41;101213.34;;;-24.55;45.70
46846;BME280;33947;46.804;134.252;2023-01-29T10:24:53;101208.22;;;-24.70;46.04
46846;BME280;33947;46.804;134.252;2023-01-29T10:28:00;101194.97;;;-25.03;45.33
46846;BME280;33947;46.804;134.252;2023-01-29T10:34:26;101198.56;;;-24.74;45.80
46846;BME280;33947;46.804;134.252;2023-01-29T10:37:41;101168.72;;;-24.93;44.95
46846;BME280;33947;46.804;134.252;2023-01-29T10:40:58;101156.53;;;-25.65;45.50
46846;BME280;33947;46.804;134.252;2023-01-29T10:44:16;101194.88;;;-25.58;46.59
46846;BME280;33947;46.804;134.252;2023-01-29T10:48:06;101193.50;;;-25.56;47.01
46846;BME280;33947;46.804;134.252;2023-01-29T10:51:28;101159.34;;;-26.29;46.88
46846;BME280;33947;46.804;134.252;2023-01-29T10:54:49;101205.06;;;-25.64;46.19
46846;BME280;33947;46.804;134.252;2023-01-29T11:01:39;101145.34;;;-26.34;46.12
46846;BME280;33947;46.804;134.252;2023-01-29T11:04:44;101186.47;;;-26.12;46.62
46846;BME280;33947;46.804;134.252;2023-01-29T11:08:01;101184.19;;;-26.31;46.51
46846;BME280;33947;46.804;134.252;2023-01-29T11:11:18;101169.69;;;-26.59;46.87
46846;BME280;33947;46.804;134.252;2023-01-29T11:14:30;101197.72;;;-26.49;46.84
46846;BME280;33947;46.804;134.252;2023-01-29T11:18:09;101178.75;;;-26.93;47.69
46846;BME280;33947;46.804;134.252;2023-01-29T11:21:17;101175.34;;;-26.93;47.86
46846;BME280;33947;46.804;134.252;2023-01-29T11:24:21;101175.66;;;-26.85;48.74
46846;BME280;33947;46.804;134.252;2023-01-29T11:27:32;101158.75;;;-27.06;49.08
46846;BME280;33947;46.804;134.252;2023-01-29T11:30:38;101192.81;;;-26.93;49.58
46846;BME280;33947;46.804;134.252;2023-01-29T11:33:45;101188.03;;;-27.05;49.87
46846;BME280;33947;46.804;134.252;2023-01-29T11:37:03;101150.16;;;-26.95;49.33
46846;BME280;33947;46.804;134.252;2023-01-29T11:43:29;101181.38;;;-26.27;46.83
46846;BME280;33947;46.804;134.252;2023-01-29T11:46:38;101193.47;;;-26.30;46.42
46846;BME280;33947;46.804;134.252;2023-01-29T11:49:51;101136.28;;;-26.47;46.09
46846;BME280;33947;46.804;134.252;2023-01-29T11:52:59;101164.53;;;-27.26;46.99
46846;BME280;33947;46.804;134.252;2023-01-29T11:59:50;101115.25;;;-27.65;48.68
46846;BME280;33947;46.804;134.252;2023-01-29T12:06:22;101168.00;;;-27.44;47.61
46846;BME280;33947;46.804;134.252;2023-01-29T12:09:30;101173.88;;;-27.43;47.88
46846;BME280;33947;46.804;134.252;2023-01-29T12:12:47;101155.53;;;-27.18;47.28
46846;BME280;33947;46.804;134.252;2023-01-29T12:16:16;101156.66;;;-27.73;47.71
46846;BME280;33947;46.804;134.252;2023-01-29T12:19:47;101180.16;;;-27.97;48.18
46846;BME280;33947;46.804;134.252;2023-01-29T12:23:05;101178.38;;;-28.17;48.82
46846;BME280;33947;46.804;134.252;2023-01-29T12:26:18;101185.31;;;-28.27;49.16
46846;BME280;33947;46.804;134.252;2023-01-29T12:33:28;101188.19;;;-28.43;50.28
46846;BME280;33947;46.804;134.252;2023-01-29T12:36:54;101163.16;;;-28.31;49.53
46846;BME280;33947;46.804;134.252;2023-01-29T12:40:13;101121.34;;;-28.64;49.10
46846;BME280;33947;46.804;134.252;2023-01-29T12:46:45;101172.44;;;-27.80;48.14
46846;BME280;33947;46.804;134.252;2023-01-29T12:49:57;101173.94;;;-27.93;47.91
46846;BME280;33947;46.804;134.252;2023-01-29T12:53:18;101176.38;;;-27.88;47.09
46846;BME280;33947;46.804;134.252;2023-01-29T12:56:40;101175.25;;;-28.40;47.34
46846;BME280;33947;46.804;134.252;2023-01-29T12:59:58;101170.88;;;-28.73;48.46
46846;BME280;33947;46.804;134.252;2023-01-29T13:06:54;101178.28;;;-28.86;48.87
46846;BME280;33947;46.804;134.252;2023-01-29T13:10:12;101174.28;;;-28.96;49.60
46846;BME280;33947;46.804;134.252;2023-01-29T13:13:27;101200.59;;;-28.55;49.01
46846;BME280;33947;46.804;134.252;2023-01-29T13:16:44;101199.50;;;-28.58;48.98
46846;BME280;33947;46.804;134.252;2023-01-29T13:19:54;101198.25;;;-28.30;48.15
46846;BME280;33947;46.804;134.252;2023-01-29T13:23:41;101180.69;;;-28.18;46.79
46846;BME280;33947;46.804;134.252;2023-01-29T13:26:52;101187.16;;;-28.13;46.56
46846;BME280;33947;46.804;134.252;2023-01-29T13:30:01;101090.34;;;-28.66;46.55
46846;BME280;33947;46.804;134.252;2023-01-29T13:33:06;101187.97;;;-28.07;46.50
46846;BME280;33947;46.804;134.252;2023-01-29T13:36:21;101176.72;;;-27.98;46.33
46846;BME280;33947;46.804;134.252;2023-01-29T13:39:33;101172.06;;;-28.58;47.05
46846;BME280;33947;46.804;134.252;2023-01-29T13:42:46;101184.09;;;-29.04;48.03
46846;BME280;33947;46.804;134.252;2023-01-29T13:45:53;101185.28;;;-28.46;48.68
46846;BME280;33947;46.804;134.252;2023-01-29T13:49:00;101164.78;;;-28.56;47.50
46846;BME280;33947;46.804;134.252;2023-01-29T13:55:38;101109.88;;;-29.85;49.08
46846;BME280;33947;46.804;134.252;2023-01-29T14:08:40;101141.97;;;-29.81;48.43
46846;BME280;33947;46.804;134.252;2023-01-29T14:11:50;101136.28;;;-29.74;49.38
46846;BME280;33947;46.804;134.252;2023-01-29T14:18:02;101192.16;;;-29.18;49.59
46846;BME280;33947;46.804;134.252;2023-01-29T14:24:21;101190.50;;;-29.11;49.40
46846;BME280;33947;46.804;134.252;2023-01-29T14:27:29;101184.25;;;-29.21;48.94
46846;BME280;33947;46.804;134.252;2023-01-29T14:30:36;101192.84;;;-29.43;49.72
46846;BME280;33947;46.804;134.252;2023-01-29T14:33:40;101150.28;;;-29.20;49.46
46846;BME280;33947;46.804;134.252;2023-01-29T14:36:48;101184.22;;;-28.72;48.38
46846;BME280;33947;46.804;134.252;2023-01-29T14:40:32;101174.41;;;-29.32;48.45
46846;BME280;33947;46.804;134.252;2023-01-29T14:43:41;101184.03;;;-29.47;49.15
46846;BME280;33947;46.804;134.252;2023-01-29T14:46:52;101121.69;;;-29.90;48.76
46846;BME280;33947;46.804;134.252;2023-01-29T14:50:01;101119.38;;;-29.82;49.35
46846;BME280;33947;46.804;134.252;2023-01-29T14:56:40;101157.41;;;-29.29;48.07
46846;BME280;33947;46.804;134.252;2023-01-29T14:59:57;101168.88;;;-29.24;48.14
46846;BME280;33947;46.804;134.252;2023-01-29T15:07:02;101129.09;;;-29.54;48.25
46846;BME280;33947;46.804;134.252;2023-01-29T15:13:36;101145.56;;;-29.49;48.37
46846;BME280;33947;46.804;134.252;2023-01-29T15:19:55;101163.81;;;-29.67;48.61
46846;BME280;33947;46.804;134.252;2023-01-29T15:23:03;101127.19;;;-29.74;48.81
46846;BME280;33947;46.804;134.252;2023-01-29T15:26:28;101118.59;;;-29.40;48.65
46846;BME280;33947;46.804;134.252;2023-01-29T15:29:36;101160.38;;;-29.37;47.29
46846;BME280;33947;46.804;134.252;2023-01-29T15:32:44;101154.38;;;-29.21;47.41
46846;BME280;33947;46.804;134.252;2023-01-29T15:36:01;101140.56;;;-29.73;46.25
46846;BME280;33947;46.804;134.252;2023-01-29T15:39:19;101111.00;;;-30.13;46.48
46846;BME280;33947;46.804;134.252;2023-01-29T15:42:28;101146.25;;;-30.10;48.28
46846;BME280;33947;46.804;134.252;2023-01-29T15:45:46;101112.91;;;-30.29;48.54
46846;BME280;33947;46.804;134.252;2023-01-29T15:48:52;101155.81;;;-30.19;48.99
46846;BME280;33947;46.804;134.252;2023-01-29T15:52:31;101142.88;;;-30.10;49.65
46846;BME280;33947;46.804;134.252;2023-01-29T15:55:41;101167.28;;;-30.13;49.73
46846;BME280;33947;46.804;134.252;2023-01-29T15:58:48;101135.91;;;-30.60;50.23
46846;BME280;33947;46.804;134.252;2023-01-29T16:01:55;101128.75;;;-30.93;51.46
46846;BME280;33947;46.804;134.252;2023-01-29T16:05:03;101160.81;;;-30.88;52.06
46846;BME280;33947;46.804;134.252;2023-01-29T16:08:12;101117.06;;;-30.99;52.11
46846;BME280;33947;46.804;134.252;2023-01-29T16:11:21;101168.25;;;-30.30;51.74
46846;BME280;33947;46.804;134.252;2023-01-29T16:14:27;101064.88;;;-30.47;50.53
46846;BME280;33947;46.804;134.252;2023-01-29T16:17:39;101176.81;;;-30.16;49.42
46846;BME280;33947;46.804;134.252;2023-01-29T16:20:49;101162.72;;;-29.75;48.91
46846;BME280;33947;46.804;134.252;2023-01-29T16:24:05;101160.38;;;-29.62;47.62
46846;BME280;33947;46.804;134.252;2023-01-29T16:27:13;101070.34;;;-30.19;46.79
46846;BME280;33947;46.804;134.252;2023-01-29T16:30:19;101131.94;;;-29.99;46.13
46846;BME280;33947;46.804;134.252;2023-01-29T16:33:36;101179.72;;;-30.08;47.28
46846;BME280;33947;46.804;134.252;2023-01-29T16:36:46;101149.59;;;-30.45;48.52
46846;BME280;33947;46.804;134.252;2023-01-29T16:39:51;101146.56;;;-30.31;48.56
46846;BME280;33947;46.804;134.252;2023-01-29T16:46:45;101096.22;;;-30.77;50.31
46846;BME280;33947;46.804;134.252;2023-01-29T16:49:57;101089.53;;;-30.54;50.46
46846;BME280;33947;46.804;134.252;2023-01-29T16:53:17;101093.75;;;-30.36;50.71
46846;BME280;33947;46.804;134.252;2023-01-29T16:56:30;101143.19;;;-29.96;49.31
46846;BME280;33947;46.804;134.252;2023-01-29T16:59:37;101163.13;;;-29.66;48.16
46846;BME280;33947;46.804;134.252;2023-01-29T17:02:42;101133.63;;;-29.87;47.70
46846;BME280;33947;46.804;134.252;2023-01-29T17:05:54;101161.63;;;-30.07;48.26
46846;BME280;33947;46.804;134.252;2023-01-29T17:09:01;101153.31;;;-30.24;48.42
46846;BME280;33947;46.804;134.252;2023-01-29T17:12:16;101174.41;;;-30.34;49.18
46846;BME280;33947;46.804;134.252;2023-01-29T17:15:42;101167.38;;;-30.30;49.87
46846;BME280;33947;46.804;134.252;2023-01-29T17:18:48;101175.03;;;-30.23;50.18
46846;BME280;33947;46.804;134.252;2023-01-29T17:21:58;101149.03;;;-30.20;49.40
46846;BME280;33947;46.804;134.252;2023-01-29T17:25:04;101182.47;;;-30.23;49.76
46846;BME280;33947;46.804;134.252;2023-01-29T17:28:16;101180.59;;;-30.07;49.46
46846;BME280;33947;46.804;134.252;2023-01-29T17:31:22;101179.78;;;-30.25;49.16
46846;BME280;33947;46.804;134.252;2023-01-29T17:34:28;101193.09;;;-30.24;49.28
46846;BME280;33947;46.804;134.252;2023-01-29T17:37:34;101166.91;;;-30.81;49.84
46846;BME280;33947;46.804;134.252;2023-01-29T17:40:45;101195.00;;;-30.46;50.99
46846;BME280;33947;46.804;134.252;2023-01-29T17:43:52;101180.94;;;-30.28;50.65
46846;BME280;33947;46.804;134.252;2023-01-29T17:46:57;101160.94;;;-30.06;50.27
46846;BME280;33947;46.804;134.252;2023-01-29T17:50:27;101185.94;;;-29.98;48.95
46846;BME280;33947;46.804;134.252;2023-01-29T17:53:34;101190.78;;;-30.06;48.55
46846;BME280;33947;46.804;134.252;2023-01-29T17:56:50;101183.84;;;-30.25;48.58
46846;BME280;33947;46.804;134.252;2023-01-29T17:59:56;101146.00;;;-30.58;48.98
46846;BME280;33947;46.804;134.252;2023-01-29T18:03:02;101138.66;;;-30.76;49.25
46846;BME280;33947;46.804;134.252;2023-01-29T18:06:08;101180.09;;;-30.46;49.44
46846;BME280;33947;46.804;134.252;2023-01-29T18:09:18;101136.44;;;-30.97;49.21
46846;BME280;33947;46.804;134.252;2023-01-29T18:12:26;101169.25;;;-30.52;49.83
46846;BME280;33947;46.804;134.252;2023-01-29T18:15:32;101101.84;;;-30.72;49.83